Time;durP1;ratioP1;P1;durP2;ratioP2;P2;SDS_P1;SDS_P2;PMS_P1;PMS_P2;Temp;Humidity;BMP_temperature;BMP_pressure;BME280_temperature;BME280_humidity;BME280_pressure;Samples;Min_cycle;Max_cycle;Signal;HPM_P1;HPM_P2
2023/06/13 00:05:27;;;;;;;16.10;11.45;;;12.80;99.90;;;;;;21071615;28;20031;-51
2023/06/13 00:15:31;;;;;;;18.52;12.48;;;12.90;99.90;;;;;;21051971;28;20082;-48
2023/06/13 00:25:33;;;;;;;24.60;16.08;;;13.00;99.90;;;;;;21069693;28;20040;-49
2023/06/13 00:35:35;;;;;;;17.23;11.48;;;13.10;99.90;;;;;;21068795;28;20081;-51
2023/06/13 00:45:36;;;;;;;16.17;11.35;;;13.00;99.90;;;;;;21068099;28;20048;-49
2023/06/13 00:55:39;;;;;;;8.68;6.50;;;12.70;99.90;;;;;;21068288;28;20028;-42
2023/06/13 01:05:43;;;;;;;10.38;6.63;;;12.60;99.90;;;;;;21067326;28;20554;-51
2023/06/13 01:15:53;;;;;;;15.25;10.80;;;12.50;99.90;;;;;;21066298;28;20028;-50
2023/06/13 01:26:07;;;;;;;23.40;16.40;;;12.30;99.90;;;;;;21062735;28;20089;-48
2023/06/13 01:36:09;;;;;;;20.73;13.73;;;12.30;99.90;;;;;;21047657;28;20039;-48
2023/06/13 01:46:33;;;;;;;18.63;12.90;;;12.30;99.90;;;;;;21046907;28;20032;-46
2023/06/13 01:56:36;;;;;;;10.68;8.60;;;12.20;99.90;;;;;;21063546;28;20036;-51
2023/06/13 02:06:37;;;;;;;10.85;8.20;;;12.10;99.90;;;;;;21046383;28;20118;-52
2023/06/13 02:16:39;;;;;;;12.00;7.88;;;11.90;99.90;;;;;;21060849;28;20032;-54
2023/06/13 02:26:47;;;;;;;9.45;5.93;;;11.80;99.90;;;;;;21079172;28;20036;-54
2023/06/13 02:36:50;;;;;;;8.77;5.95;;;11.60;99.90;;;;;;21058036;28;20370;-50
2023/06/13 02:46:53;;;;;;;7.07;5.53;;;11.40;99.90;;;;;;21077724;28;20032;-51
2023/06/13 02:56:55;;;;;;;7.03;5.38;;;11.30;99.90;;;;;;21058610;28;20077;-47
2023/06/13 03:06:57;;;;;;;7.65;5.60;;;11.30;99.90;;;;;;21076513;28;20092;-48
2023/06/13 03:16:59;;;;;;;6.82;5.43;;;11.30;99.90;;;;;;21057080;28;20036;-50
2023/06/13 03:27:01;;;;;;;9.68;5.90;;;11.30;99.90;;;;;;21074397;28;20039;-49
2023/06/13 03:37:08;;;;;;;8.23;6.40;;;11.30;99.90;;;;;;21038709;28;20048;-50
2023/06/13 03:47:10;;;;;;;8.63;7.07;;;11.20;99.90;;;;;;21054650;28;20093;-49
2023/06/13 03:57:12;;;;;;;9.20;6.90;;;11.20;99.90;;;;;;21071723;28;20036;-47
2023/06/13 04:07:14;;;;;;;9.38;6.80;;;11.30;99.90;;;;;;21053293;28;20090;-48
2023/06/13 04:17:16;;;;;;;9.73;7.40;;;11.30;99.90;;;;;;21052246;28;20492;-52
2023/06/13 04:27:19;;;;;;;11.98;7.28;;;11.30;99.90;;;;;;21051289;28;20036;-47
2023/06/13 04:37:30;;;;;;;9.07;7.30;;;11.30;99.90;;;;;;21068623;28;20555;-47
2023/06/13 04:47:33;;;;;;;10.35;6.75;;;11.40;99.90;;;;;;21047385;28;20036;-48
2023/06/13 04:57:35;;;;;;;9.30;7.32;;;11.50;99.90;;;;;;21067452;28;20035;-50
2023/06/13 05:07:39;;;;;;;8.07;6.60;;;11.60;99.90;;;;;;21067434;28;20035;-48
2023/06/13 05:17:40;;;;;;;10.65;6.70;;;11.70;99.90;;;;;;21066484;28;20035;-51
2023/06/13 05:27:42;;;;;;;8.18;6.13;;;11.80;99.90;;;;;;21065764;28;20028;-53
2023/06/13 05:37:43;;;;;;;8.85;6.65;;;11.90;99.90;;;;;;21066636;28;20044;-53
2023/06/13 05:47:45;;;;;;;8.02;6.47;;;12.00;99.90;;;;;;21075013;28;20104;-52
2023/06/13 05:57:46;;;;;;;7.18;6.07;;;12.10;99.90;;;;;;21081746;28;20048;-51
2023/06/13 06:07:48;;;;;;;8.88;6.22;;;12.00;99.90;;;;;;21097145;28;20126;-46
2023/06/13 06:17:50;;;;;;;12.82;7.28;;;11.90;99.90;;;;;;21079764;28;20032;-50
2023/06/13 06:27:52;;;;;;;11.50;8.10;;;11.90;99.90;;;;;;21077006;28;20479;-51
2023/06/13 06:37:54;;;;;;;61.08;8.05;;;12.00;99.90;;;;;;21076734;28;20040;-52
2023/06/13 06:47:56;;;;;;;63.42;6.90;;;12.10;99.90;;;;;;21077737;28;20046;-48
2023/06/13 06:57:58;;;;;;;8.73;7.05;;;12.10;99.90;;;;;;21074442;28;20036;-44
2023/06/13 07:07:59;;;;;;;74.35;9.23;;;12.10;99.90;;;;;;21076036;28;20078;-53
2023/06/13 07:18:01;;;;;;;7.25;6.43;;;12.20;99.90;;;;;;21075126;28;20028;-51
2023/06/13 07:28:03;;;;;;;7.43;5.30;;;12.40;99.90;;;;;;21075559;28;20346;-52
2023/06/13 07:38:05;;;;;;;6.20;5.55;;;12.40;99.90;;;;;;21071369;28;20440;-48
2023/06/13 07:48:07;;;;;;;5.40;4.38;;;12.80;99.90;;;;;;21072604;28;20342;-53
2023/06/13 07:58:09;;;;;;;7.20;4.53;;;13.10;99.90;;;;;;21054851;28;20081;-52
2023/06/13 08:08:10;;;;;;;5.32;3.65;;;13.80;99.90;;;;;;21070855;28;20399;-50
2023/06/13 08:18:13;;;;;;;4.25;3.33;;;14.80;99.90;;;;;;21070397;28;20770;-53
2023/06/13 08:28:14;;;;;;;3.53;2.92;;;16.10;99.90;;;;;;21051765;28;20036;-53
2023/06/13 08:38:16;;;;;;;3.25;2.95;;;17.30;99.90;;;;;;21069179;28;20040;-46
2023/06/13 08:48:18;;;;;;;3.33;3.03;;;18.60;99.90;;;;;;21068429;28;20032;-47
2023/06/13 08:58:20;;;;;;;3.70;2.65;;;18.60;99.90;;;;;;21067514;28;20032;-47
2023/06/13 09:08:24;;;;;;;5.40;3.10;;;18.50;99.90;;;;;;21065371;28;20036;-52
2023/06/13 09:18:27;;;;;;;4.40;3.20;;;19.00;99.90;;;;;;21048273;28;20020;-45
2023/06/13 09:28:36;;;;;;;4.47;3.50;;;19.20;99.90;;;;;;21065645;28;20040;-52
2023/06/13 09:38:42;;;;;;;4.43;2.70;;;19.60;99.90;;;;;;21065909;28;20075;-55
2023/06/13 09:48:45;;;;;;;3.25;2.95;;;20.60;99.90;;;;;;21065565;28;20485;-48
2023/06/13 09:58:47;;;;;;;3.55;2.75;;;21.90;99.90;;;;;;21079708;28;20039;-57
2023/06/13 10:08:49;;;;;;;5.25;2.63;;;23.30;99.90;;;;;;21062398;28;20028;-56
2023/06/13 10:18:53;;;;;;;5.60;2.70;;;23.20;99.30;;;;;;21063527;28;20046;-56
2023/06/13 10:29:24;;;;;;;5.00;3.10;;;22.40;99.90;;;;;;21060087;28;20027;-56
2023/06/13 10:40:08;;;;;;;3.20;2.90;;;21.60;99.90;;;;;;21078427;28;20044;-55
2023/06/13 10:50:14;;;;;;;5.13;3.30;;;22.80;99.90;;;;;;21059141;28;20031;-49
2023/06/13 11:00:30;;;;;;;4.18;3.70;;;25.00;99.80;;;;;;21076588;28;20112;-54
2023/06/13 11:10:35;;;;;;;5.13;3.75;;;24.70;97.10;;;;;;21075362;28;20070;-54
2023/06/13 11:20:57;;;;;;;6.78;5.00;;;22.80;98.10;;;;;;21074596;28;20031;-51
2023/06/13 11:31:04;;;;;;;7.03;5.10;;;20.50;99.90;;;;;;21073487;28;20039;-53
2023/06/13 11:41:06;;;;;;;8.38;5.15;;;18.50;99.90;;;;;;21068286;28;20035;-52
2023/06/13 11:51:15;;;;;;;5.97;4.65;;;18.30;99.90;;;;;;21071429;28;20044;-53
2023/06/13 12:01:18;;;;;;;6.72;5.25;;;18.80;99.90;;;;;;21069353;28;20032;-46
2023/06/13 12:11:22;;;;;;;6.90;5.30;;;19.60;99.90;;;;;;21053692;28;20032;-52
2023/06/13 12:21:30;;;;;;;6.13;4.97;;;19.60;99.90;;;;;;21069823;28;20503;-54
2023/06/13 12:31:35;;;;;;;5.88;5.38;;;18.90;99.90;;;;;;21067905;28;20405;-54
2023/06/13 12:41:42;;;;;;;7.10;6.40;;;18.90;99.90;;;;;;21049330;28;20052;-48
2023/06/13 12:51:46;;;;;;;9.60;6.05;;;18.60;99.90;;;;;;21067126;28;20036;-52
2023/06/13 13:01:48;;;;;;;6.10;4.82;;;18.70;99.90;;;;;;21066287;28;20459;-55
2023/06/13 13:11:49;;;;;;;5.57;4.90;;;19.10;99.90;;;;;;21063669;28;20024;-55
2023/06/13 13:21:51;;;;;;;5.88;5.10;;;18.80;99.90;;;;;;21065549;28;20538;-51
2023/06/13 13:31:53;;;;;;;7.28;5.78;;;18.40;99.90;;;;;;21064533;28;20032;-54
2023/06/13 13:41:55;;;;;;;6.45;5.40;;;18.40;99.90;;;;;;21064262;28;20052;-51
2023/06/13 13:51:56;;;;;;;8.90;5.53;;;19.30;99.90;;;;;;21064251;28;20489;-48
2023/06/13 14:01:58;;;;;;;7.93;6.13;;;19.50;99.90;;;;;;21039992;28;20032;-50
2023/06/13 14:12:00;;;;;;;7.43;6.72;;;18.50;99.90;;;;;;21078180;28;20083;-52
2023/06/13 14:22:02;;;;;;;7.70;6.90;;;18.00;99.90;;;;;;21079409;28;20028;-50
2023/06/13 14:32:04;;;;;;;7.10;6.40;;;17.50;99.90;;;;;;21078249;28;20538;-51
2023/06/13 14:42:06;;;;;;;7.57;5.88;;;17.30;99.90;;;;;;21077270;28;20044;-51
2023/06/13 14:52:08;;;;;;;8.20;6.18;;;17.80;99.90;;;;;;21077369;28;20493;-48
2023/06/13 15:02:10;;;;;;;7.10;5.93;;;18.60;99.90;;;;;;21075924;28;20086;-44
2023/06/13 15:12:12;;;;;;;6.95;5.95;;;18.90;99.90;;;;;;21075159;28;20024;-45
2023/06/13 15:22:13;;;;;;;8.25;6.75;;;18.70;99.90;;;;;;21074502;28;20036;-49
2023/06/13 15:32:19;;;;;;;10.32;7.75;;;18.50;99.90;;;;;;21089025;28;20542;-50
2023/06/13 15:42:20;;;;;;;9.07;7.10;;;17.90;99.90;;;;;;20996928;28;20049;-51
2023/06/13 15:52:22;;;;;;;9.73;7.68;;;17.00;99.90;;;;;;20986747;28;20043;-50
2023/06/13 16:02:23;;;;;;;9.13;7.97;;;16.30;99.90;;;;;;20978397;28;20033;-44
2023/06/13 16:12:25;;;;;;;8.40;6.65;;;16.00;99.90;;;;;;21016376;28;20150;-48
2023/06/13 16:22:26;;;;;;;9.48;6.40;;;15.50;99.90;;;;;;21025090;28;20028;-48
2023/06/13 16:32:28;;;;;;;10.15;7.47;;;15.10;99.90;;;;;;21042595;28;20113;-44
2023/06/13 16:42:30;;;;;;;8.52;6.22;;;14.80;99.90;;;;;;20980232;28;20044;-47
2023/06/13 16:52:33;;;;;;;8.57;7.70;;;14.70;99.90;;;;;;21033279;28;20040;-49
2023/06/13 17:02:35;;;;;;;9.52;8.25;;;14.60;99.90;;;;;;21003953;28;20077;-43
2023/06/13 17:12:38;;;;;;;8.75;7.78;;;14.50;99.90;;;;;;21005091;28;20481;-47
2023/06/13 17:22:39;;;;;;;11.50;8.52;;;14.30;99.90;;;;;;20990149;28;20036;-49
2023/06/13 17:32:41;;;;;;;12.43;9.18;;;14.20;99.90;;;;;;20981601;28;20037;-48
2023/06/13 17:42:43;;;;;;;11.80;9.02;;;14.00;99.90;;;;;;20915760;28;20532;-44
2023/06/13 17:52:44;;;;;;;10.15;8.75;;;13.90;99.90;;;;;;20925707;28;20029;-44
2023/06/13 18:02:46;;;;;;;13.77;9.68;;;13.80;99.90;;;;;;20923099;28;20044;-48
2023/06/13 18:12:48;;;;;;;12.00;9.00;;;13.70;99.90;;;;;;20903035;28;20099;-45
2023/06/13 18:22:50;;;;;;;14.73;9.73;;;13.60;99.90;;;;;;20924279;28;20552;-48
2023/06/13 18:32:51;;;;;;;10.93;9.55;;;13.40;99.90;;;;;;20916064;28;20474;-46
2023/06/13 18:42:53;;;;;;;14.00;10.10;;;13.40;99.90;;;;;;20903171;28;20486;-48
2023/06/13 18:53:05;;;;;;;12.93;10.20;;;13.40;99.90;;;;;;20919381;28;20105;-48
2023/06/13 19:03:06;;;;;;;15.20;11.23;;;13.20;99.90;;;;;;20904876;28;20044;-44
2023/06/13 19:13:09;;;;;;;16.02;12.25;;;13.20;99.90;;;;;;20915432;28;20394;-45
2023/06/13 19:23:13;;;;;;;17.95;13.30;;;13.10;99.90;;;;;;20907779;28;20033;-47
2023/06/13 19:33:20;;;;;;;18.05;13.68;;;13.20;99.90;;;;;;20890980;28;20064;-49
2023/06/13 19:43:21;;;;;;;14.05;11.90;;;13.20;99.90;;;;;;21069865;28;20032;-47
2023/06/13 19:53:23;;;;;;;16.13;12.07;;;13.30;99.90;;;;;;21072104;28;20032;-49
2023/06/13 20:03:28;;;;;;;18.88;13.15;;;13.20;99.90;;;;;;21069960;28;20028;-43
2023/06/13 20:13:29;;;;;;;16.73;13.10;;;13.10;99.90;;;;;;21070314;28;20032;-47
2023/06/13 20:23:31;;;;;;;16.58;13.85;;;13.00;99.90;;;;;;21069753;28;20058;-45
2023/06/13 20:33:33;;;;;;;20.92;15.90;;;12.90;99.90;;;;;;21033626;28;20089;-46
2023/06/13 20:43:35;;;;;;;19.13;14.80;;;12.70;99.90;;;;;;21067530;28;20028;-46
2023/06/13 20:53:36;;;;;;;23.88;17.13;;;12.60;99.90;;;;;;21049653;28;20054;-44
2023/06/13 21:03:38;;;;;;;26.17;19.80;;;12.40;99.90;;;;;;21066404;28;20043;-49
2023/06/13 21:13:39;;;;;;;28.75;20.98;;;12.20;99.90;;;;;;21065878;28;20553;-44
2023/06/13 21:23:41;;;;;;;26.48;20.17;;;12.00;99.90;;;;;;21065600;28;20028;-48
2023/06/13 21:33:43;;;;;;;28.15;21.30;;;12.00;99.90;;;;;;21064881;28;20129;-48
2023/06/13 21:43:46;;;;;;;23.85;18.13;;;12.10;99.90;;;;;;21064971;28;20097;-47
2023/06/13 21:53:48;;;;;;;24.50;19.40;;;12.20;99.90;;;;;;21064491;28;20028;-49
2023/06/13 22:03:49;;;;;;;22.65;19.08;;;12.30;99.90;;;;;;21063959;28;20032;-47
2023/06/13 22:13:51;;;;;;;22.33;17.55;;;12.30;99.90;;;;;;21063609;28;20093;-48
2023/06/13 22:23:53;;;;;;;20.25;17.10;;;12.30;99.90;;;;;;21063238;28;20062;-48
2023/06/13 22:33:54;;;;;;;18.73;15.30;;;12.20;99.90;;;;;;21059158;28;20043;-51
2023/06/13 22:43:56;;;;;;;20.05;14.30;;;12.20;99.90;;;;;;21075706;28;20503;-51
2023/06/13 22:53:58;;;;;;;19.13;15.90;;;12.20;99.90;;;;;;21077612;28;20105;-49
2023/06/13 23:04:00;;;;;;;20.67;16.08;;;12.30;99.90;;;;;;21075659;28;20489;-47
2023/06/13 23:14:02;;;;;;;23.73;17.70;;;12.30;99.90;;;;;;21056958;28;20028;-45
2023/06/13 23:24:04;;;;;;;23.90;18.85;;;12.30;99.90;;;;;;21074147;28;20534;-44
2023/06/13 23:34:08;;;;;;;25.40;18.40;;;12.30;99.90;;;;;;21055041;28;20044;-47
2023/06/13 23:44:10;;;;;;;22.33;17.50;;;12.40;99.90;;;;;;21068956;28;20477;-47
2023/06/13 23:54:14;;;;;;;23.27;17.23;;;12.40;99.90;;;;;;21072247;28;20024;-51
